createdAt,value
2019-05-29T00:02:15.980Z,13.01
2019-05-29T00:04:47.837Z,13.01
2019-05-29T00:07:19.711Z,13.01
2019-05-29T00:09:51.598Z,12.94
2019-05-29T00:12:23.516Z,13.05
2019-05-29T00:14:55.445Z,12.96
2019-05-29T00:17:27.372Z,12.80
2019-05-29T00:19:59.236Z,12.73
2019-05-29T00:22:31.094Z,12.75
2019-05-29T00:25:03.051Z,12.61
2019-05-29T00:27:35.543Z,12.64
2019-05-29T00:30:08.825Z,12.54
2019-05-29T00:32:40.776Z,12.31
2019-05-29T00:35:12.762Z,12.31
2019-05-29T00:37:44.617Z,12.31
2019-05-29T00:40:17.159Z,12.29
2019-05-29T00:42:49.160Z,12.31
2019-05-29T00:45:21.341Z,12.24
2019-05-29T00:47:53.194Z,12.16
2019-05-29T00:50:25.056Z,12.13
2019-05-29T00:52:56.862Z,12.07
2019-05-29T00:55:28.720Z,12.19
2019-05-29T00:58:00.578Z,12.14
2019-05-29T01:00:32.520Z,12.24
2019-05-29T01:03:04.606Z,12.19
2019-05-29T01:05:36.529Z,11.99
2019-05-29T01:08:08.317Z,12.01
2019-05-29T01:10:40.176Z,12.07
2019-05-29T01:13:13.380Z,12.08
2019-05-29T01:15:45.157Z,12.12
2019-05-29T01:18:17.821Z,12.09
2019-05-29T01:20:49.789Z,12.12
2019-05-29T01:23:22.927Z,12.06
2019-05-29T01:25:54.746Z,12.07
2019-05-29T01:28:26.546Z,12.02
2019-05-29T01:30:58.358Z,11.91
2019-05-29T01:33:30.228Z,11.81
2019-05-29T01:36:02.010Z,11.78
2019-05-29T01:38:34.189Z,11.76
2019-05-29T01:41:06.237Z,11.77
2019-05-29T01:43:38.098Z,11.74
2019-05-29T01:46:09.952Z,11.68
2019-05-29T01:48:43.167Z,11.62
2019-05-29T01:51:15.453Z,11.68
2019-05-29T01:53:47.381Z,11.65
2019-05-29T01:56:19.796Z,11.61
2019-05-29T01:58:51.707Z,11.62
2019-05-29T02:01:24.048Z,11.50
2019-05-29T02:03:55.996Z,11.57
2019-05-29T02:06:28.230Z,11.47
2019-05-29T02:09:00.218Z,11.44
2019-05-29T02:11:32.354Z,11.32
2019-05-29T02:14:04.313Z,11.37
2019-05-29T02:16:36.240Z,11.42
2019-05-29T02:19:09.263Z,11.45
2019-05-29T02:21:41.145Z,11.47
2019-05-29T02:24:13.006Z,11.34
2019-05-29T02:26:44.788Z,11.26
2019-05-29T02:29:16.634Z,11.14
2019-05-29T02:31:48.447Z,11.17
2019-05-29T02:34:22.543Z,11.01
2019-05-29T02:36:54.761Z,10.96
2019-05-29T02:39:27.231Z,10.91
2019-05-29T02:42:00.173Z,10.87
2019-05-29T02:44:31.959Z,11.02
2019-05-29T02:47:03.748Z,11.09
2019-05-29T02:49:35.593Z,11.05
2019-05-29T02:52:07.440Z,11.03
2019-05-29T02:54:39.306Z,10.95
2019-05-29T02:57:11.293Z,10.88
2019-05-29T02:59:43.101Z,10.80
2019-05-29T03:02:14.886Z,10.83
2019-05-29T03:04:46.748Z,10.84
2019-05-29T03:07:18.703Z,10.80
2019-05-29T03:09:50.480Z,10.74
2019-05-29T03:12:22.877Z,10.67
2019-05-29T03:14:54.894Z,10.66
2019-05-29T03:17:27.901Z,10.60
2019-05-29T03:20:00.153Z,10.59
2019-05-29T03:22:33.743Z,10.65
2019-05-29T03:25:06.050Z,10.64
2019-05-29T03:27:38.505Z,10.66
2019-05-29T03:30:10.490Z,10.60
2019-05-29T03:32:47.718Z,10.62
2019-05-29T03:35:15.910Z,10.75
2019-05-29T03:37:47.702Z,10.80
2019-05-29T03:40:19.631Z,10.81
2019-05-29T03:42:51.870Z,10.81
2019-05-29T03:45:23.651Z,10.81
2019-05-29T03:47:55.416Z,10.82
2019-05-29T03:50:29.383Z,10.93
2019-05-29T03:53:00.790Z,10.86
2019-05-29T03:55:33.721Z,10.85
2019-05-29T03:58:06.570Z,10.90
2019-05-29T04:00:45.653Z,10.95
2019-05-29T04:03:11.997Z,10.99
2019-05-29T04:05:43.842Z,11.10
2019-05-29T04:08:15.638Z,11.14
2019-05-29T04:10:47.517Z,11.24
2019-05-29T04:13:19.375Z,11.20
2019-05-29T04:15:51.234Z,11.16
2019-05-29T04:18:24.345Z,11.29
2019-05-29T04:20:57.006Z,11.18
2019-05-29T04:23:32.259Z,11.30
2019-05-29T04:26:06.051Z,11.40
2019-05-29T04:28:38.978Z,11.41
2019-05-29T04:31:10.981Z,11.41
2019-05-29T04:33:42.795Z,11.45
2019-05-29T04:36:14.645Z,11.40
2019-05-29T04:38:46.440Z,11.56
2019-05-29T04:41:18.292Z,11.61
2019-05-29T04:43:50.102Z,11.70
2019-05-29T04:46:21.878Z,11.61
2019-05-29T04:48:53.671Z,11.68
2019-05-29T04:51:26.532Z,11.80
2019-05-29T04:53:58.320Z,11.80
2019-05-29T04:56:30.740Z,11.79
2019-05-29T04:59:02.562Z,11.75
2019-05-29T05:01:35.070Z,11.93
2019-05-29T05:04:07.268Z,12.03
2019-05-29T05:06:39.464Z,12.01
2019-05-29T05:09:11.397Z,11.88
2019-05-29T05:11:43.202Z,11.98
2019-05-29T05:14:14.984Z,12.03
2019-05-29T05:16:47.071Z,12.04
2019-05-29T05:19:19.496Z,12.20
2019-05-29T05:21:52.738Z,12.24
2019-05-29T05:24:24.528Z,12.29
2019-05-29T05:26:56.543Z,12.33
2019-05-29T05:29:28.579Z,12.37
2019-05-29T05:32:01.156Z,12.49
2019-05-29T05:34:33.187Z,12.67
2019-05-29T05:37:05.055Z,12.68
2019-05-29T05:39:37.356Z,12.82
2019-05-29T05:42:09.520Z,12.75
2019-05-29T05:44:41.422Z,12.74
2019-05-29T05:47:13.328Z,12.79
2019-05-29T05:49:45.177Z,12.70
2019-05-29T05:52:16.970Z,12.60
2019-05-29T05:54:48.772Z,12.71
2019-05-29T05:57:20.562Z,12.81
2019-05-29T05:59:52.429Z,12.96
2019-05-29T06:02:24.413Z,12.89
2019-05-29T06:04:56.196Z,12.90
2019-05-29T06:07:28.135Z,13.04
2019-05-29T06:09:59.948Z,13.03
2019-05-29T06:12:32.263Z,13.27
2019-05-29T06:15:04.357Z,13.22
2019-05-29T06:17:36.621Z,13.33
2019-05-29T06:20:08.652Z,13.27
2019-05-29T06:22:41.364Z,13.27
2019-05-29T06:25:13.189Z,13.44
2019-05-29T06:27:45.051Z,13.29
2019-05-29T06:30:17.060Z,13.33
2019-05-29T06:32:49.030Z,13.30
2019-05-29T06:35:20.839Z,13.45
2019-05-29T06:37:52.691Z,13.48
2019-05-29T06:40:40.180Z,13.79
2019-05-29T06:43:22.119Z,13.92
2019-05-29T06:45:54.301Z,14.07
2019-05-29T06:48:42.652Z,14.35
2019-05-29T06:51:01.632Z,14.55
2019-05-29T06:53:33.572Z,14.52
2019-05-29T06:56:05.640Z,14.54
2019-05-29T06:58:40.280Z,14.49
2019-05-29T07:01:12.279Z,14.67
2019-05-29T07:03:44.211Z,14.75
2019-05-29T07:06:16.016Z,14.92
2019-05-29T07:08:50.067Z,14.78
2019-05-29T07:11:22.607Z,14.78
2019-05-29T07:13:54.467Z,15.06
2019-05-29T07:16:43.276Z,15.12
2019-05-29T07:21:33.561Z,15.05
2019-05-29T07:24:05.920Z,14.74
2019-05-29T07:26:41.073Z,14.78
2019-05-29T07:29:14.561Z,14.62
2019-05-29T07:31:47.493Z,14.61
2019-05-29T07:34:23.401Z,14.69
2019-05-29T07:36:55.517Z,14.89
2019-05-29T07:39:27.548Z,14.68
2019-05-29T07:41:59.597Z,14.80
2019-05-29T07:44:31.453Z,14.91
2019-05-29T07:47:03.665Z,15.01
2019-05-29T07:49:39.859Z,14.94
2019-05-29T07:52:10.801Z,14.98
2019-05-29T07:54:43.770Z,14.84
2019-05-29T07:57:15.865Z,14.83
2019-05-29T07:59:48.793Z,14.93
2019-05-29T08:02:20.694Z,15.01
2019-05-29T08:04:52.558Z,15.12
2019-05-29T08:07:24.436Z,15.28
2019-05-29T08:09:56.304Z,15.20
2019-05-29T08:12:28.301Z,15.49
2019-05-29T08:15:00.207Z,15.49
2019-05-29T08:17:33.691Z,15.20
2019-05-29T08:20:08.229Z,15.25
2019-05-29T08:22:40.293Z,15.19
2019-05-29T08:25:12.239Z,15.18
2019-05-29T08:27:44.712Z,15.18
2019-05-29T08:30:17.112Z,15.15
2019-05-29T08:32:51.154Z,15.62
2019-05-29T08:35:24.689Z,15.72
2019-05-29T08:37:56.591Z,15.94
2019-05-29T08:40:28.629Z,15.96
2019-05-29T08:43:00.483Z,15.84
2019-05-29T08:45:32.336Z,15.61
2019-05-29T08:48:04.180Z,15.63
2019-05-29T08:50:36.164Z,15.78
2019-05-29T08:53:08.098Z,15.48
2019-05-29T08:55:40.027Z,15.32
2019-05-29T08:58:11.874Z,15.32
2019-05-29T09:00:48.118Z,15.58
2019-05-29T09:03:17.478Z,16.03
2019-05-29T09:06:04.999Z,15.90
2019-05-29T09:08:22.808Z,15.69
2019-05-29T09:10:54.989Z,15.60
2019-05-29T09:13:26.883Z,15.89
2019-05-29T09:15:58.742Z,16.31
2019-05-29T09:18:30.587Z,16.22
2019-05-29T09:21:03.939Z,16.36
2019-05-29T09:23:37.824Z,16.66
2019-05-29T09:26:16.029Z,16.64
2019-05-29T09:28:44.347Z,16.32
2019-05-29T09:31:17.363Z,16.78
2019-05-29T09:33:49.954Z,16.98
2019-05-29T09:36:22.735Z,16.96
2019-05-29T09:38:55.471Z,16.82
2019-05-29T09:41:27.398Z,16.78
2019-05-29T09:44:00.355Z,16.94
2019-05-29T09:46:33.443Z,17.04
2019-05-29T09:49:05.388Z,16.88
2019-05-29T09:51:37.501Z,16.85
2019-05-29T09:54:09.534Z,16.72
2019-05-29T09:56:41.527Z,16.62
2019-05-29T09:59:13.379Z,17.02
2019-05-29T10:01:46.977Z,17.60
2019-05-29T10:04:19.341Z,17.24
2019-05-29T10:06:51.206Z,17.34
2019-05-29T10:09:24.660Z,17.27
2019-05-29T10:12:00.885Z,17.23
2019-05-29T10:14:30.795Z,17.66
2019-05-29T10:17:07.990Z,17.93
2019-05-29T10:19:37.230Z,18.37
2019-05-29T10:22:09.078Z,18.45
2019-05-29T10:24:42.726Z,17.99
2019-05-29T10:27:14.601Z,17.84
2019-05-29T10:29:49.639Z,17.42
2019-05-29T10:32:20.228Z,17.15
2019-05-29T10:34:52.648Z,16.99
2019-05-29T10:37:24.660Z,17.03
2019-05-29T10:39:56.429Z,17.07
2019-05-29T10:42:28.314Z,17.52
2019-05-29T10:45:00.223Z,17.58
2019-05-29T10:47:33.584Z,17.27
2019-05-29T10:50:05.949Z,16.96
2019-05-29T10:52:38.754Z,16.92
2019-05-29T10:55:10.791Z,17.10
2019-05-29T10:57:42.665Z,17.33
2019-05-29T11:00:15.412Z,17.93
2019-05-29T11:02:48.228Z,18.35
2019-05-29T11:05:21.153Z,18.04
2019-05-29T11:07:54.021Z,17.89
2019-05-29T11:10:26.241Z,17.75
2019-05-29T11:12:58.097Z,17.36
2019-05-29T11:15:30.042Z,17.45
2019-05-29T11:18:01.834Z,17.33
2019-05-29T11:20:33.962Z,17.82
2019-05-29T11:23:06.044Z,18.38
2019-05-29T11:25:37.892Z,18.28
2019-05-29T11:28:09.758Z,18.23
2019-05-29T11:30:41.582Z,18.40
2019-05-29T11:33:14.785Z,19.28
2019-05-29T11:35:57.763Z,18.94
2019-05-29T11:38:20.934Z,18.43
2019-05-29T11:41:19.400Z,18.31
2019-05-29T11:43:27.289Z,18.48
2019-05-29T11:45:59.620Z,18.50
2019-05-29T11:48:31.515Z,18.26
2019-05-29T11:51:03.542Z,17.83
2019-05-29T11:53:35.822Z,17.49
2019-05-29T11:56:07.640Z,17.71
2019-05-29T11:58:39.602Z,17.88
2019-05-29T12:01:11.443Z,18.12
2019-05-29T12:04:09.577Z,18.94
2019-05-29T12:06:16.842Z,19.53
2019-05-29T12:08:48.619Z,20.06
2019-05-29T12:11:20.417Z,19.72
2019-05-29T12:13:54.034Z,19.39
2019-05-29T12:16:25.828Z,19.04
2019-05-29T12:18:57.884Z,19.29
2019-05-29T12:21:29.649Z,19.95
2019-05-29T12:24:02.312Z,20.41
2019-05-29T12:26:34.243Z,20.78
2019-05-29T12:29:11.395Z,19.61
2019-05-29T12:31:39.930Z,19.20
2019-05-29T12:34:18.774Z,18.75
2019-05-29T12:36:45.392Z,19.08
2019-05-29T12:39:17.263Z,20.01
2019-05-29T12:41:49.219Z,20.25
2019-05-29T12:44:21.067Z,20.51
2019-05-29T12:46:53.491Z,20.69
2019-05-29T12:49:25.369Z,20.30
2019-05-29T12:51:57.622Z,19.81
2019-05-29T12:54:29.710Z,19.49
2019-05-29T12:57:02.360Z,19.35
2019-05-29T12:59:34.755Z,19.68
2019-05-29T13:02:07.345Z,20.00
2019-05-29T13:05:05.989Z,20.12
2019-05-29T13:07:12.806Z,19.64
2019-05-29T13:09:44.606Z,19.46
2019-05-29T13:12:16.484Z,19.75
2019-05-29T13:14:48.359Z,19.96
2019-05-29T13:17:21.394Z,19.59
2019-05-29T13:19:57.616Z,19.80
2019-05-29T13:22:27.145Z,19.59
2019-05-29T13:24:59.396Z,19.54
2019-05-29T13:27:31.456Z,19.61
2019-05-29T13:30:06.085Z,19.63
2019-05-29T13:32:37.120Z,19.98
2019-05-29T13:35:09.697Z,19.96
2019-05-29T13:37:41.624Z,20.63
2019-05-29T13:40:15.026Z,20.96
2019-05-29T13:42:47.481Z,21.34
2019-05-29T13:45:19.527Z,21.42
2019-05-29T13:47:51.394Z,21.36
2019-05-29T13:50:23.430Z,20.85
2019-05-29T13:52:57.131Z,20.70
2019-05-29T13:55:29.312Z,20.19
2019-05-29T13:58:01.633Z,19.44
2019-05-29T14:00:35.076Z,19.42
2019-05-29T14:03:09.222Z,19.16
2019-05-29T14:05:42.036Z,18.89
2019-05-29T14:08:16.177Z,19.23
2019-05-29T14:10:48.517Z,20.68
2019-05-29T14:13:20.367Z,21.64
2019-05-29T14:15:52.249Z,22.63
2019-05-29T14:18:24.115Z,22.39
2019-05-29T14:20:56.473Z,22.20
2019-05-29T14:23:28.365Z,21.80
2019-05-29T14:26:00.444Z,23.13
2019-05-29T14:28:32.283Z,24.04
2019-05-29T14:31:05.853Z,24.40
2019-05-29T14:33:37.894Z,24.23
2019-05-29T14:36:11.501Z,23.88
2019-05-29T14:38:44.787Z,24.50
2019-05-29T14:41:16.964Z,24.84
2019-05-29T14:43:48.773Z,24.98
2019-05-29T14:46:20.562Z,26.58
2019-05-29T14:48:54.139Z,27.57
2019-05-29T14:51:26.298Z,26.53
2019-05-29T14:53:58.148Z,27.34
2019-05-29T14:56:30.034Z,26.31
2019-05-29T14:59:03.218Z,25.22
2019-05-29T15:01:35.205Z,24.81
2019-05-29T15:04:07.630Z,25.29
2019-05-29T15:06:39.539Z,24.97
2019-05-29T15:09:11.760Z,24.11
2019-05-29T15:11:43.628Z,23.79
2019-05-29T15:14:15.513Z,23.82
2019-05-29T15:16:47.494Z,24.30
2019-05-29T15:19:19.343Z,25.47
2019-05-29T15:21:51.217Z,25.30
2019-05-29T15:24:23.035Z,25.28
2019-05-29T15:26:54.897Z,24.67
2019-05-29T15:29:26.778Z,25.13
2019-05-29T15:31:58.809Z,25.59
2019-05-29T15:34:30.696Z,26.61
2019-05-29T15:37:02.553Z,27.70
2019-05-29T15:39:34.527Z,28.62
2019-05-29T15:42:06.823Z,29.24
2019-05-29T15:44:38.720Z,27.75
2019-05-29T15:47:10.976Z,26.94
2019-05-29T15:49:42.846Z,25.77
2019-05-29T15:52:15.259Z,25.28
2019-05-29T15:54:48.184Z,24.72
2019-05-29T15:57:20.017Z,25.00
2019-05-29T15:59:51.825Z,25.35
2019-05-29T16:02:23.586Z,25.03
2019-05-29T16:04:55.448Z,25.12
2019-05-29T16:07:27.330Z,26.49
2019-05-29T16:09:59.115Z,27.85
2019-05-29T16:12:31.405Z,27.34
2019-05-29T16:15:04.052Z,27.98
2019-05-29T16:17:36.054Z,28.04
2019-05-29T16:20:10.304Z,26.91
2019-05-29T16:22:44.036Z,26.04
2019-05-29T16:25:19.314Z,25.35
2019-05-29T16:27:51.251Z,24.42
2019-05-29T16:30:23.503Z,24.16
2019-05-29T16:32:55.565Z,23.15
2019-05-29T16:35:28.156Z,22.38
2019-05-29T16:38:02.673Z,21.72
2019-05-29T16:40:35.183Z,21.39
2019-05-29T16:43:07.388Z,20.65
2019-05-29T16:45:39.230Z,20.13
2019-05-29T16:48:12.874Z,20.15
2019-05-29T16:50:44.949Z,20.42
2019-05-29T16:53:16.802Z,20.37
2019-05-29T16:55:53.691Z,20.29
2019-05-29T16:58:23.311Z,19.62
2019-05-29T17:00:55.195Z,19.34
2019-05-29T17:03:27.962Z,19.24
2019-05-29T17:05:59.749Z,19.33
2019-05-29T17:08:31.606Z,19.08
2019-05-29T17:11:05.045Z,19.17
2019-05-29T17:13:37.331Z,19.02
2019-05-29T17:16:09.438Z,19.15
2019-05-29T17:18:41.455Z,19.08
2019-05-29T17:21:14.396Z,19.08
2019-05-29T17:23:47.133Z,18.86
2019-05-29T17:26:19.366Z,18.89
2019-05-29T17:28:51.226Z,18.92
2019-05-29T17:31:23.008Z,18.92
2019-05-29T17:33:54.809Z,19.14
2019-05-29T17:36:28.810Z,18.98
2019-05-29T17:39:00.243Z,19.02
2019-05-29T17:41:32.143Z,19.09
2019-05-29T17:44:04.214Z,19.00
2019-05-29T17:46:36.063Z,18.99
2019-05-29T17:49:08.263Z,19.06
2019-05-29T17:51:40.298Z,18.91
2019-05-29T17:54:12.213Z,18.99
2019-05-29T17:56:44.067Z,18.79
2019-05-29T17:59:16.050Z,18.86
2019-05-29T18:01:47.912Z,18.98
2019-05-29T18:04:20.380Z,19.06
2019-05-29T18:06:52.311Z,18.83
2019-05-29T18:09:27.350Z,18.65
2019-05-29T18:11:57.747Z,18.42
2019-05-29T18:14:29.609Z,18.29
2019-05-29T18:17:01.475Z,18.38
2019-05-29T18:19:33.578Z,18.30
2019-05-29T18:22:05.368Z,18.12
2019-05-29T18:24:37.545Z,18.17
2019-05-29T18:27:09.508Z,18.22
2019-05-29T18:29:41.382Z,18.26
2019-05-29T18:32:13.234Z,18.07
2019-05-29T18:34:45.112Z,17.85
2019-05-29T18:37:16.968Z,17.74
2019-05-29T18:39:48.840Z,17.90
2019-05-29T18:42:20.736Z,17.93
2019-05-29T18:44:52.883Z,17.88
2019-05-29T18:47:25.189Z,17.76
2019-05-29T18:49:57.192Z,17.69
2019-05-29T18:52:30.335Z,17.63
2019-05-29T18:55:02.525Z,17.67
2019-05-29T18:57:34.870Z,17.62
2019-05-29T19:00:07.407Z,17.45
2019-05-29T19:02:49.743Z,17.33
2019-05-29T19:05:23.585Z,17.14
2019-05-29T19:07:58.729Z,16.99
2019-05-29T19:10:31.837Z,16.93
2019-05-29T19:13:04.257Z,16.85
2019-05-29T19:15:36.265Z,16.68
2019-05-29T19:18:09.505Z,16.63
2019-05-29T19:20:41.325Z,16.58
2019-05-29T19:23:14.209Z,16.52
2019-05-29T19:25:46.076Z,16.37
2019-05-29T19:28:17.941Z,16.29
2019-05-29T19:30:49.802Z,16.13
2019-05-29T19:33:21.668Z,15.91
2019-05-29T19:35:53.550Z,15.81
2019-05-29T19:38:25.666Z,15.66
2019-05-29T19:40:58.603Z,15.71
2019-05-29T19:43:30.488Z,15.74
2019-05-29T19:46:02.347Z,15.72
2019-05-29T19:48:35.286Z,15.63
2019-05-29T19:51:08.526Z,15.46
2019-05-29T19:53:40.427Z,15.44
2019-05-29T19:56:12.284Z,15.35
2019-05-29T19:58:44.176Z,15.44
2019-05-29T20:01:30.039Z,15.42
2019-05-29T20:03:49.617Z,15.36
2019-05-29T20:06:21.569Z,15.33
2019-05-29T20:08:53.440Z,15.22
2019-05-29T20:11:25.566Z,15.16
2019-05-29T20:13:57.437Z,15.00
2019-05-29T20:16:30.080Z,14.81
2019-05-29T20:19:02.093Z,14.76
2019-05-29T20:21:34.751Z,14.74
2019-05-29T20:24:07.041Z,14.57
2019-05-29T20:26:39.429Z,14.49
2019-05-29T20:29:11.320Z,14.41
2019-05-29T20:31:43.133Z,14.35
2019-05-29T20:34:14.994Z,14.35
2019-05-29T20:36:46.853Z,14.24
2019-05-29T20:39:19.734Z,14.07
2019-05-29T20:41:51.713Z,14.04
2019-05-29T20:44:23.564Z,14.09
2019-05-29T20:46:55.421Z,14.08
2019-05-29T20:49:27.271Z,14.07
2019-05-29T20:51:59.160Z,14.12
2019-05-29T20:54:31.565Z,14.15
2019-05-29T20:57:11.098Z,14.10
2019-05-29T20:59:43.874Z,14.00
2019-05-29T21:02:15.774Z,14.02
2019-05-29T21:04:47.662Z,14.04
2019-05-29T21:07:19.527Z,13.98
2019-05-29T21:09:51.330Z,13.88
2019-05-29T21:12:23.141Z,13.88
2019-05-29T21:14:54.975Z,13.94
2019-05-29T21:17:26.742Z,13.90
2019-05-29T21:19:58.550Z,13.84
2019-05-29T21:22:30.370Z,13.72
2019-05-29T21:25:08.432Z,13.73
2019-05-29T21:27:37.023Z,13.74
2019-05-29T21:30:09.154Z,13.63
2019-05-29T21:32:42.070Z,13.63
2019-05-29T21:35:14.008Z,13.54
2019-05-29T21:37:46.975Z,13.55
2019-05-29T21:40:18.879Z,13.41
2019-05-29T21:42:52.030Z,13.40
2019-05-29T21:45:23.830Z,13.38
2019-05-29T21:47:55.716Z,13.39
2019-05-29T21:50:27.509Z,13.35
2019-05-29T21:53:00.364Z,13.31
2019-05-29T21:55:32.316Z,13.30
2019-05-29T21:58:04.115Z,13.26
2019-05-29T22:00:42.390Z,13.30
2019-05-29T22:03:15.814Z,13.22
2019-05-29T22:05:48.879Z,13.12
2019-05-29T22:08:20.836Z,13.16
2019-05-29T22:10:53.453Z,13.21
2019-05-29T22:13:25.480Z,13.19
2019-05-29T22:15:57.430Z,13.21
2019-05-29T22:18:29.323Z,13.13
2019-05-29T22:21:01.687Z,13.15
2019-05-29T22:23:33.696Z,13.17
2019-05-29T22:26:05.553Z,13.11
2019-05-29T22:28:37.719Z,13.06
2019-05-29T22:31:09.553Z,13.08
2019-05-29T22:33:41.412Z,13.09
2019-05-29T22:36:13.284Z,13.03
2019-05-29T22:38:45.111Z,13.03
2019-05-29T22:41:16.835Z,12.90
2019-05-29T22:43:48.691Z,12.79
2019-05-29T22:46:20.673Z,12.71
2019-05-29T22:48:53.675Z,12.71
2019-05-29T22:51:25.702Z,12.75
2019-05-29T22:53:57.914Z,12.78
2019-05-29T22:56:29.937Z,12.68
2019-05-29T22:59:02.256Z,12.49
2019-05-29T23:01:34.190Z,12.40
2019-05-29T23:04:07.334Z,12.21
2019-05-29T23:06:39.224Z,12.13
2019-05-29T23:09:11.031Z,12.05
2019-05-29T23:11:42.923Z,11.88
2019-05-29T23:14:14.859Z,12.00
2019-05-29T23:16:46.694Z,11.87
2019-05-29T23:19:18.596Z,11.79
2019-05-29T23:21:50.484Z,11.77
2019-05-29T23:24:22.372Z,11.66
2019-05-29T23:26:54.961Z,11.59
2019-05-29T23:29:26.953Z,11.49
2019-05-29T23:31:58.965Z,11.38
2019-05-29T23:34:30.770Z,11.57
2019-05-29T23:37:03.356Z,11.64
2019-05-29T23:39:35.303Z,11.64
2019-05-29T23:42:07.285Z,11.70
2019-05-29T23:44:39.084Z,11.70
2019-05-29T23:47:10.971Z,11.69
2019-05-29T23:49:42.859Z,11.66
2019-05-29T23:52:14.673Z,11.68
2019-05-29T23:54:46.540Z,11.60
2019-05-29T23:57:18.426Z,11.60
